Time;durP1;ratioP1;P1;durP2;ratioP2;P2;SDS_P1;SDS_P2;PMS_P1;PMS_P2;Temp;Humidity;BMP_temperature;BMP_pressure;BME280_temperature;BME280_humidity;BME280_pressure;Samples;Min_cycle;Max_cycle;Signal;HPM_P1;HPM_P2
2023/04/27 00:03:46;;;;;;;13.20;3.67;;;;;;;-0.84;100.00;96708.59;10411781;28;20239;-68
2023/04/27 00:08:46;;;;;;;7.50;3.07;;;;;;;-0.82;100.00;96704.16;10411766;28;20220;-66
2023/04/27 00:13:47;;;;;;;8.30;3.00;;;;;;;-0.99;100.00;96702.53;10410642;28;20282;-67
2023/04/27 00:18:47;;;;;;;7.47;3.67;;;;;;;-0.99;100.00;96688.88;10411384;28;20672;-66
2023/04/27 00:23:48;;;;;;;10.20;3.83;;;;;;;-0.97;100.00;96695.56;10411371;28;20620;-67
2023/04/27 00:28:48;;;;;;;5.40;3.27;;;;;;;-0.98;100.00;96693.06;10411231;28;20216;-67
2023/04/27 00:33:48;;;;;;;8.27;4.03;;;;;;;-0.94;100.00;96699.72;10411176;28;20223;-66
2023/04/27 00:38:49;;;;;;;9.13;3.80;;;;;;;-0.93;100.00;96706.53;10393348;28;20216;-68
2023/04/27 00:43:50;;;;;;;13.27;3.80;;;;;;;-0.82;100.00;96700.78;10411063;28;20322;-68
2023/04/27 00:48:50;;;;;;;10.90;3.77;;;;;;;-0.79;100.00;96706.56;10410749;28;20220;-68
2023/04/27 00:53:51;;;;;;;6.73;3.10;;;;;;;-0.80;100.00;96702.31;10393045;28;20235;-66
2023/04/27 00:58:51;;;;;;;5.90;3.23;;;;;;;-0.81;100.00;96708.41;10410789;28;20192;-67
2023/04/27 01:03:52;;;;;;;7.33;3.77;;;;;;;-0.87;100.00;96713.03;10409986;28;20745;-67
2023/04/27 01:08:52;;;;;;;9.13;4.10;;;;;;;-0.96;100.00;96711.84;10393244;28;20224;-66
2023/04/27 01:13:54;;;;;;;8.90;4.13;;;;;;;-0.95;100.00;96716.91;10410655;28;20216;-67
2023/04/27 01:18:54;;;;;;;11.43;3.77;;;;;;;-0.97;100.00;96717.88;10393252;28;20271;-67
2023/04/27 01:23:57;;;;;;;9.20;3.83;;;;;;;-0.99;100.00;96712.81;10398327;28;20265;-67
2023/04/27 01:28:58;;;;;;;7.00;3.60;;;;;;;-1.12;100.00;96712.69;10417970;28;20560;-67
2023/04/27 01:34:01;;;;;;;8.77;3.73;;;;;;;-1.18;100.00;96712.19;10399935;28;20213;-67
2023/04/27 01:39:02;;;;;;;5.53;2.90;;;;;;;-1.19;100.00;96720.81;10399921;28;20189;-67
2023/04/27 01:44:03;;;;;;;6.60;3.03;;;;;;;-1.29;100.00;96723.91;10417823;28;20236;-67
2023/04/27 01:49:04;;;;;;;4.67;2.60;;;;;;;-1.33;100.00;96729.25;10417563;28;20216;-66
2023/04/27 01:54:05;;;;;;;6.67;2.63;;;;;;;-1.36;100.00;96735.41;10399367;28;20209;-66
2023/04/27 01:59:05;;;;;;;10.57;4.03;;;;;;;-1.36;100.00;96745.69;10417167;28;20199;-66
2023/04/27 02:04:05;;;;;;;8.03;3.30;;;;;;;-1.41;100.00;96741.69;10416684;28;20204;-67
2023/04/27 02:09:06;;;;;;;7.07;2.77;;;;;;;-1.47;100.00;96742.84;10399169;28;20220;-66
2023/04/27 02:14:06;;;;;;;9.10;3.77;;;;;;;-1.55;100.00;96740.69;10398487;28;20239;-67
2023/04/27 02:19:07;;;;;;;18.03;4.10;;;;;;;-1.56;100.00;96738.19;10398644;28;20683;-66
2023/04/27 02:24:08;;;;;;;5.37;3.77;;;;;;;-1.65;100.00;96750.63;10398344;28;20224;-66
2023/04/27 02:29:09;;;;;;;10.53;4.60;;;;;;;-1.76;100.00;96742.66;10416063;28;20705;-66
2023/04/27 02:34:10;;;;;;;9.47;3.87;;;;;;;-1.79;100.00;96750.50;10415574;28;20204;-68
2023/04/27 02:39:10;;;;;;;10.57;4.63;;;;;;;-1.91;100.00;96751.16;10398030;28;20193;-68
2023/04/27 02:44:11;;;;;;;4.60;3.40;;;;;;;-1.93;100.00;96753.78;10415443;28;20297;-68
2023/04/27 02:49:12;;;;;;;12.70;5.23;;;;;;;-1.94;100.00;96753.88;10414039;28;20354;-66
2023/04/27 02:54:12;;;;;;;21.37;10.00;;;;;;;-1.97;100.00;96757.41;10414829;28;20208;-66
2023/04/27 02:59:13;;;;;;;9.27;4.77;;;;;;;-2.01;100.00;96748.19;10397384;28;20188;-66
2023/04/27 03:04:13;;;;;;;8.20;5.37;;;;;;;-2.05;100.00;96752.66;10414134;28;20216;-66
2023/04/27 03:09:14;;;;;;;6.87;4.63;;;;;;;-2.04;100.00;96754.31;10414209;28;20232;-66
2023/04/27 03:14:14;;;;;;;12.03;3.87;;;;;;;-2.07;100.00;96759.59;10414014;28;20208;-67
2023/04/27 03:19:14;;;;;;;9.90;3.90;;;;;;;-2.12;100.00;96758.19;10414214;28;20188;-67
2023/04/27 03:24:16;;;;;;;10.50;4.30;;;;;;;-2.12;100.00;96769.28;10413771;28;20270;-67
2023/04/27 03:29:16;;;;;;;8.27;4.07;;;;;;;-2.16;100.00;96771.19;10413779;28;20221;-67
2023/04/27 03:34:17;;;;;;;11.77;3.87;;;;;;;-2.20;100.00;96779.09;10413249;28;20212;-67
2023/04/27 03:39:17;;;;;;;9.83;4.60;;;;;;;-2.23;100.00;96784.38;10413414;28;20197;-68
2023/04/27 03:44:18;;;;;;;8.93;5.13;;;;;;;-2.25;100.00;96791.31;10395518;28;20248;-67
2023/04/27 03:49:19;;;;;;;7.40;4.93;;;;;;;-2.31;100.00;96801.88;10395128;28;20220;-66
2023/04/27 03:54:19;;;;;;;11.37;3.97;;;;;;;-2.33;100.00;96794.25;10411282;28;20285;-67
2023/04/27 03:59:20;;;;;;;7.47;4.77;;;;;;;-2.39;100.00;96804.81;10394727;28;20188;-66
2023/04/27 04:04:23;;;;;;;8.80;4.13;;;;;;;-2.39;100.00;96797.13;10394599;28;20654;-66
2023/04/27 04:09:23;;;;;;;9.40;4.77;;;;;;;-2.41;100.00;96804.91;10394343;28;20259;-67
2023/04/27 04:14:24;;;;;;;12.47;4.97;;;;;;;-2.35;100.00;96808.91;10412039;28;20274;-66
2023/04/27 04:19:25;;;;;;;8.80;4.27;;;;;;;-2.35;100.00;96819.16;10394446;28;20188;-66
2023/04/27 04:24:26;;;;;;;9.67;5.07;;;;;;;-2.29;100.00;96816.31;10412041;28;20200;-67
2023/04/27 04:29:26;;;;;;;8.67;4.50;;;;;;;-2.24;100.00;96823.78;10410579;28;20277;-67
2023/04/27 04:34:28;;;;;;;9.93;5.20;;;;;;;-2.23;100.00;96823.69;10411667;28;20281;-67
2023/04/27 04:39:32;;;;;;;6.93;4.77;;;;;;;-2.15;100.00;96818.19;10394064;28;20188;-67
2023/04/27 04:44:32;;;;;;;11.60;4.83;;;;;;;-2.04;100.00;96825.38;10460363;23;20608;-65
2023/04/27 04:49:32;;;;;;;8.97;5.07;;;;;;;-1.90;100.00;96825.53;10451863;28;20225;-65
2023/04/27 04:54:33;;;;;;;8.73;3.50;;;;;;;-1.71;100.00;96827.16;10451933;28;20218;-65
2023/04/27 04:59:33;;;;;;;9.37;5.10;;;;;;;-1.44;100.00;96825.75;10457248;28;20188;-62
2023/04/27 05:04:34;;;;;;;17.83;9.20;;;;;;;-1.16;100.00;96833.75;10458829;28;20295;-63
2023/04/27 05:09:34;;;;;;;9.10;3.90;;;;;;;-0.94;100.00;96828.28;10458708;28;20219;-64
2023/04/27 05:14:35;;;;;;;8.23;6.27;;;;;;;-0.61;100.00;96817.91;10458692;28;20297;-65
2023/04/27 05:19:35;;;;;;;17.13;4.83;;;;;;;-0.38;100.00;96816.63;10459522;28;20207;-64
2023/04/27 05:24:35;;;;;;;6.33;3.50;;;;;;;-0.11;100.00;96817.72;10459071;28;20273;-65
2023/04/27 05:29:36;;;;;;;8.57;3.53;;;;;;;0.14;100.00;96812.00;10459105;28;20219;-64
2023/04/27 05:34:36;;;;;;;9.03;3.67;;;;;;;0.48;100.00;96804.84;10458712;28;20275;-64
2023/04/27 05:39:38;;;;;;;13.30;4.13;;;;;;;0.89;100.00;96796.34;10458746;28;20230;-66
2023/04/27 05:44:38;;;;;;;9.73;3.50;;;;;;;1.15;100.00;96791.28;10458233;28;20339;-65
2023/04/27 05:49:38;;;;;;;10.63;3.70;;;;;;;1.62;100.00;96787.44;10458210;28;20677;-65
2023/04/27 05:54:38;;;;;;;8.37;3.57;;;;;;;1.91;99.83;96766.66;10458154;28;20771;-65
2023/04/27 05:59:40;;;;;;;4.77;3.47;;;;;;;2.52;95.97;96755.69;10457374;28;20771;-64
2023/04/27 06:04:40;;;;;;;7.20;3.10;;;;;;;3.60;92.20;96732.53;10457985;28;20713;-65
2023/04/27 06:09:41;;;;;;;12.60;3.30;;;;;;;5.17;80.60;96655.63;10455149;28;20192;-65
2023/04/27 06:14:41;;;;;;;10.00;3.37;;;;;;;5.30;75.68;96625.13;10456238;28;20817;-66
2023/04/27 06:19:41;;;;;;;6.43;3.20;;;;;;;4.62;77.77;96653.09;10456578;28;20224;-66
2023/04/27 06:24:42;;;;;;;7.93;3.60;;;;;;;5.05;75.48;96644.47;10456043;28;20212;-65
2023/04/27 06:29:42;;;;;;;7.47;3.30;;;;;;;6.00;72.16;96622.84;10454030;28;20230;-65
2023/04/27 06:34:42;;;;;;;6.57;3.33;;;;;;;5.85;68.18;96579.88;10455036;28;20224;-65
2023/04/27 06:39:43;;;;;;;7.60;3.50;;;;;;;5.87;67.56;96589.22;10456349;28;20228;-65
2023/04/27 06:44:43;;;;;;;5.03;3.20;;;;;;;5.98;63.60;96523.31;10455765;28;20242;-66
2023/04/27 06:49:44;;;;;;;8.90;3.33;;;;;;;6.52;64.84;96567.25;10463004;28;20196;-66
2023/04/27 06:54:44;;;;;;;7.10;3.23;;;;;;;6.82;63.97;96549.91;10455493;28;20234;-66
2023/04/27 06:59:45;;;;;;;7.43;3.20;;;;;;;7.32;59.48;96501.03;10449258;28;20220;-64
2023/04/27 07:04:45;;;;;;;10.17;3.77;;;;;;;7.54;60.36;96538.13;10453882;28;20262;-66
2023/04/27 07:09:45;;;;;;;8.50;3.37;;;;;;;7.52;59.45;96534.84;10452441;28;20200;-64
2023/04/27 07:14:46;;;;;;;5.97;3.20;;;;;;;8.79;56.24;96509.84;10454477;28;20231;-67
2023/04/27 07:19:46;;;;;;;6.53;3.20;;;;;;;8.74;54.36;96492.03;10453044;28;20311;-66
2023/04/27 07:24:46;;;;;;;6.13;3.13;;;;;;;7.01;58.21;96538.63;10453382;28;20212;-65
2023/04/27 07:29:47;;;;;;;5.73;3.00;;;;;;;8.53;55.85;96513.22;10452757;28;20196;-67
2023/04/27 07:34:47;;;;;;;8.23;3.30;;;;;;;8.56;53.23;96481.63;10452893;28;20243;-65
2023/04/27 07:39:49;;;;;;;7.20;3.10;;;;;;;9.67;52.13;96469.78;10452531;28;20238;-65
2023/04/27 07:44:49;;;;;;;8.40;2.90;;;;;;;10.18;51.21;96478.44;10450893;28;20231;-65
2023/04/27 07:49:51;;;;;;;7.13;3.30;;;;;;;9.99;50.86;96469.88;10451467;28;20176;-66
2023/04/27 07:54:52;;;;;;;8.07;3.40;;;;;;;8.75;49.48;96431.00;10452014;28;20200;-66
2023/04/27 07:59:52;;;;;;;5.65;3.47;;;;;;;9.99;48.55;96437.66;10452052;28;20212;-65
2023/04/27 08:04:53;;;;;;;9.00;3.23;;;;;;;9.05;50.17;96475.94;10451274;28;20693;-66
2023/04/27 08:09:53;;;;;;;9.43;3.50;;;;;;;8.39;51.23;96493.63;10451461;28;20195;-64
2023/04/27 08:14:53;;;;;;;7.40;3.40;;;;;;;9.14;48.81;96455.91;10447893;28;20211;-66
2023/04/27 08:19:54;;;;;;;5.97;3.40;;;;;;;7.65;51.50;96470.16;10447223;28;20216;-65
2023/04/27 08:24:54;;;;;;;7.37;3.10;;;;;;;8.42;50.38;96477.66;10449328;28;20250;-64
2023/04/27 08:29:54;;;;;;;5.60;3.23;;;;;;;8.84;49.71;96464.03;10448680;28;20187;-66
2023/04/27 08:34:55;;;;;;;6.80;3.40;;;;;;;10.29;49.13;96496.47;10450839;28;20247;-65
2023/04/27 08:39:55;;;;;;;7.93;3.67;;;;;;;10.71;46.09;96437.94;10450458;28;20216;-66
2023/04/27 08:44:56;;;;;;;6.00;3.88;;;;;;;9.77;49.68;96501.84;10433485;28;20244;-65
2023/04/27 08:49:56;;;;;;;7.70;4.15;;;;;;;10.51;47.93;96487.22;10446866;28;20305;-67
2023/04/27 08:54:56;;;;;;;8.27;4.80;;;;;;;8.50;50.22;96492.63;10448710;28;20218;-66
2023/04/27 09:00:03;;;;;;;11.30;5.20;;;;;;;8.07;52.68;96534.09;10451239;28;20243;-66
2023/04/27 09:05:04;;;;;;;13.77;4.50;;;;;;;10.07;50.61;96552.84;10448857;28;20184;-65
2023/04/27 09:10:04;;;;;;;8.88;4.53;;;;;;;12.44;43.64;96447.88;10449153;28;20270;-66
2023/04/27 09:15:07;;;;;;;7.30;4.00;;;;;;;11.13;45.67;96462.31;10449025;28;20279;-67
2023/04/27 09:20:12;;;;;;;7.10;4.18;;;;;;;11.70;44.22;96452.66;10448020;28;20208;-66
2023/04/27 09:25:30;;;;;;;12.77;4.57;;;;;;;11.91;45.73;96480.97;10449404;28;20196;-66
2023/04/27 09:30:30;;;;;;;9.05;4.88;;;;;;;11.20;45.74;96460.66;10447145;28;20220;-66
2023/04/27 09:35:32;;;;;;;6.55;4.43;;;;;;;12.31;45.09;96487.88;10446036;28;20199;-66
2023/04/27 09:40:32;;;;;;;8.40;4.55;;;;;;;11.49;42.43;96377.97;10445994;28;20239;-66
2023/04/27 09:45:32;;;;;;;7.65;4.60;;;;;;;12.99;41.15;96396.00;10453596;28;20650;-65
2023/04/27 09:50:37;;;;;;;7.05;4.20;;;;;;;12.28;44.16;96467.19;10453017;28;20661;-65
2023/04/27 09:55:59;;;;;;;6.95;4.63;;;;;;;12.12;44.20;96447.09;10452955;28;20220;-66
2023/04/27 10:01:15;;;;;;;8.63;4.78;;;;;;;10.60;47.79;96487.25;10451782;28;20218;-66
2023/04/27 10:06:46;;;;;;;6.35;4.40;;;;;;;10.87;46.68;96478.22;10455756;28;20274;-66
2023/04/27 10:11:47;;;;;;;6.40;4.35;;;;;;;10.64;47.26;96484.13;10455449;28;20215;-65
2023/04/27 10:16:52;;;;;;;9.30;5.32;;;;;;;11.04;44.75;96448.41;10462135;28;20220;-64
2023/04/27 10:21:55;;;;;;;9.93;5.25;;;;;;;10.90;46.80;96480.53;10460332;28;20279;-66
2023/04/27 10:27:04;;;;;;;8.75;4.55;;;;;;;10.89;45.60;96460.56;10482062;28;20188;-66
2023/04/27 10:32:06;;;;;;;8.68;4.28;;;;;;;13.41;43.24;96482.44;10463803;28;20216;-66
2023/04/27 10:37:10;;;;;;;9.45;4.53;;;;;;;13.35;41.76;96431.34;10463005;28;20207;-67
2023/04/27 10:42:11;;;;;;;7.28;4.32;;;;;;;11.71;44.55;96443.81;10466778;28;20271;-66
2023/04/27 10:47:15;;;;;;;10.90;4.45;;;;;;;12.12;44.34;96468.09;10439562;28;20279;-64
2023/04/27 10:52:16;;;;;;;6.55;4.63;;;;;;;12.13;43.51;96447.94;10451841;28;20243;-65
2023/04/27 10:57:16;;;;;;;7.97;4.57;;;;;;;12.30;44.01;96459.97;10449084;28;20212;-65
2023/04/27 11:02:25;;;;;;;10.05;5.00;;;;;;;13.13;43.03;96461.97;10453427;28;20207;-66
2023/04/27 11:07:27;;;;;;;7.05;4.95;;;;;;;12.97;42.04;96434.00;10452376;28;20922;-65
2023/04/27 11:12:27;;;;;;;6.75;4.28;;;;;;;14.11;39.81;96398.69;10449821;28;20331;-67
2023/04/27 11:17:28;;;;;;;11.40;5.10;;;;;;;13.37;42.20;96451.22;10452779;28;20219;-67
2023/04/27 11:22:30;;;;;;;9.63;4.50;;;;;;;14.47;40.79;96438.16;10451975;28;20228;-65
2023/04/27 11:27:40;;;;;;;7.60;4.57;;;;;;;15.94;37.42;96399.63;10451484;28;20267;-67
2023/04/27 11:32:41;;;;;;;7.38;4.93;;;;;;;14.93;38.78;96398.25;10452060;28;20685;-65
2023/04/27 11:37:41;;;;;;;5.93;4.93;;;;;;;14.96;39.20;96412.84;10451622;28;20215;-66
2023/04/27 11:42:45;;;;;;;10.52;5.75;;;;;;;13.16;41.76;96415.06;10451611;28;20690;-66
2023/04/27 11:47:46;;;;;;;9.52;4.80;;;;;;;14.73;39.59;96426.25;10451724;28;20184;-67
2023/04/27 11:52:47;;;;;;;6.47;4.75;;;;;;;15.06;38.86;96421.25;10451164;28;20211;-67
2023/04/27 11:57:48;;;;;;;6.80;4.90;;;;;;;14.25;39.91;96417.06;10450344;28;20220;-64
2023/04/27 12:02:48;;;;;;;8.90;5.05;;;;;;;13.97;38.77;96372.19;10424735;28;20842;-67
2023/04/27 12:07:49;;;;;;;9.65;4.47;;;;;;;14.65;40.10;96443.03;10450263;28;20720;-66
2023/04/27 12:12:49;;;;;;;8.40;5.05;;;;;;;14.61;38.64;96387.25;10449399;28;20761;-65
2023/04/27 12:17:50;;;;;;;6.20;4.57;;;;;;;13.39;41.61;96458.94;10447824;28;20207;-66
2023/04/27 12:22:50;;;;;;;8.30;4.72;;;;;;;13.46;42.76;96482.72;10449502;28;20208;-66
2023/04/27 12:27:51;;;;;;;6.88;4.70;;;;;;;13.53;42.52;96475.75;10450008;28;20215;-66
2023/04/27 12:32:51;;;;;;;8.73;4.88;;;;;;;14.67;40.73;96461.28;10449460;28;20219;-66
2023/04/27 12:37:51;;;;;;;10.00;4.70;;;;;;;15.97;37.45;96419.53;10450113;28;20279;-66
2023/04/27 12:42:52;;;;;;;9.40;5.20;;;;;;;16.37;36.51;96409.91;10448864;28;20239;-67
2023/04/27 12:47:53;;;;;;;9.10;4.88;;;;;;;15.93;37.75;96434.97;10447108;28;20216;-66
2023/04/27 12:52:53;;;;;;;8.00;4.97;;;;;;;15.90;37.63;96426.66;10448461;28;20214;-65
2023/04/27 12:57:56;;;;;;;7.13;4.70;;;;;;;16.99;36.76;96441.53;10448925;28;20242;-67
2023/04/27 13:02:57;;;;;;;9.48;4.60;;;;;;;17.02;34.17;96356.44;10448337;28;20295;-67
2023/04/27 13:07:57;;;;;;;7.97;4.57;;;;;;;16.91;35.93;96417.94;10450001;28;20204;-67
2023/04/27 13:12:58;;;;;;;7.88;4.10;;;;;;;18.98;34.16;96429.59;10448744;28;20223;-67
2023/04/27 13:18:00;;;;;;;9.00;4.30;;;;;;;19.23;33.10;96393.22;10452173;28;20188;-66
2023/04/27 13:23:02;;;;;;;6.70;4.63;;;;;;;18.60;34.60;96423.28;10457157;28;20218;-66
2023/04/27 13:28:03;;;;;;;9.05;5.05;;;;;;;18.49;34.59;96402.75;10456064;28;20208;-67
2023/04/27 13:33:03;;;;;;;6.65;4.53;;;;;;;17.93;35.02;96402.47;10455614;28;20215;-66
2023/04/27 13:38:03;;;;;;;7.97;4.60;;;;;;;18.93;33.02;96376.31;10455435;28;20196;-66
2023/04/27 13:43:04;;;;;;;7.63;5.10;;;;;;;18.50;32.49;96327.47;10456092;28;20600;-66
2023/04/27 13:48:05;;;;;;;11.35;4.70;;;;;;;18.18;32.82;96335.44;10456094;28;20302;-67
2023/04/27 13:53:05;;;;;;;9.50;5.13;;;;;;;16.29;37.30;96414.56;10455964;28;20285;-66
2023/04/27 13:58:06;;;;;;;8.73;5.10;;;;;;;17.09;36.54;96420.78;10455805;28;20183;-66
2023/04/27 14:03:07;;;;;;;5.97;4.50;;;;;;;18.14;34.51;96374.81;10455289;28;20693;-66
2023/04/27 14:08:07;;;;;;;6.78;4.65;;;;;;;19.95;31.49;96371.38;10454748;28;20222;-67
2023/04/27 14:13:08;;;;;;;6.88;4.97;;;;;;;18.19;31.47;96276.06;10454719;28;20211;-67
2023/04/27 14:18:08;;;;;;;10.25;4.82;;;;;;;19.74;32.41;96385.09;10454594;28;20197;-67
2023/04/27 14:23:09;;;;;;;7.65;4.50;;;;;;;20.25;31.10;96365.25;10454598;28;20319;-67
2023/04/27 14:28:11;;;;;;;7.30;5.43;;;;;;;20.56;30.28;96331.41;10453995;28;20215;-65
2023/04/27 14:33:11;;;;;;;7.78;5.03;;;;;;;20.85;30.09;96332.38;10454368;28;20216;-67
2023/04/27 14:38:12;;;;;;;6.35;4.22;;;;;;;21.82;30.09;96378.19;10452998;28;20196;-65
2023/04/27 14:43:12;;;;;;;9.15;5.20;;;;;;;19.93;30.58;96306.16;10453921;28;20259;-66
2023/04/27 14:48:12;;;;;;;6.65;4.72;;;;;;;21.91;28.80;96347.44;10453023;28;20721;-67
2023/04/27 14:53:13;;;;;;;8.48;4.50;;;;;;;22.52;28.19;96343.47;10453764;28;20207;-66
2023/04/27 14:58:14;;;;;;;10.35;4.93;;;;;;;21.08;29.33;96317.44;10453613;28;20195;-66
2023/04/27 15:03:15;;;;;;;8.25;4.30;;;;;;;23.55;27.78;96363.69;10453192;28;20851;-66
2023/04/27 15:08:16;;;;;;;6.63;4.65;;;;;;;22.24;29.76;96383.25;10426382;28;20222;-67
2023/04/27 15:13:16;;;;;;;8.13;4.70;;;;;;;22.69;27.71;96330.91;10451244;28;20705;-66
2023/04/27 15:18:17;;;;;;;8.90;5.00;;;;;;;21.67;28.89;96332.53;10453203;28;20192;-66
2023/04/27 15:23:18;;;;;;;7.20;5.13;;;;;;;20.30;32.61;96399.94;10451971;28;20462;-66
2023/04/27 15:28:18;;;;;;;8.63;6.30;;;;;;;19.64;32.20;96364.34;10452183;28;20478;-65
2023/04/27 15:33:18;;;;;;;9.35;5.53;;;;;;;19.31;33.68;96412.53;10451937;28;20208;-66
2023/04/27 15:38:19;;;;;;;10.10;6.05;;;;;;;18.62;33.20;96370.00;10450275;28;20195;-65
2023/04/27 15:43:20;;;;;;;8.98;5.25;;;;;;;18.64;36.62;96479.41;10448205;28;20270;-66
2023/04/27 15:48:20;;;;;;;16.38;6.72;;;;;;;16.62;37.43;96432.34;10451274;28;20762;-65
2023/04/27 15:53:21;;;;;;;9.77;6.10;;;;;;;17.36;36.19;96428.66;10456005;28;20287;-65
2023/04/27 15:58:21;;;;;;;9.88;6.38;;;;;;;16.44;37.85;96441.63;10451792;28;20195;-65
2023/04/27 16:03:22;;;;;;;13.10;7.10;;;;;;;15.67;38.83;96425.88;10449669;28;20212;-66
2023/04/27 16:08:22;;;;;;;11.18;6.63;;;;;;;15.79;39.31;96442.03;10446352;28;20216;-66
2023/04/27 16:13:23;;;;;;;14.63;6.47;;;;;;;15.85;38.57;96427.25;10449359;28;20223;-66
2023/04/27 16:18:23;;;;;;;11.27;6.47;;;;;;;15.87;39.53;96454.25;10449360;28;20733;-65
2023/04/27 16:23:24;;;;;;;9.35;7.00;;;;;;;16.00;39.37;96445.56;10446955;28;20226;-65
2023/04/27 16:28:25;;;;;;;10.85;6.07;;;;;;;14.85;41.47;96464.31;10448577;28;20211;-66
2023/04/27 16:33:25;;;;;;;11.57;6.82;;;;;;;14.43;42.08;96455.38;10448942;28;20207;-65
2023/04/27 16:38:25;;;;;;;13.93;6.70;;;;;;;14.53;40.82;96437.44;10447316;28;20182;-64
2023/04/27 16:43:26;;;;;;;12.10;7.03;;;;;;;13.48;43.23;96471.03;10450473;28;20297;-66
2023/04/27 16:48:27;;;;;;;10.82;6.60;;;;;;;12.85;44.74;96494.91;10449521;28;20215;-65
2023/04/27 16:53:27;;;;;;;12.15;6.63;;;;;;;13.01;44.62;96509.72;10475126;22;20239;-64
2023/04/27 16:58:28;;;;;;;8.77;6.28;;;;;;;12.18;45.98;96510.44;10446968;28;20278;-62
2023/04/27 17:03:29;;;;;;;10.77;7.30;;;;;;;11.43;48.38;96557.84;10436829;28;20228;-62
2023/04/27 17:08:29;;;;;;;9.27;7.10;;;;;;;11.38;48.16;96554.91;10435664;28;20307;-63
2023/04/27 17:13:30;;;;;;;12.57;7.20;;;;;;;10.73;49.98;96571.41;10436875;28;20212;-63
2023/04/27 17:18:32;;;;;;;12.48;7.25;;;;;;;10.74;50.32;96580.91;10435044;28;20304;-63
2023/04/27 17:23:33;;;;;;;10.27;7.18;;;;;;;10.60;50.76;96576.31;10436569;28;20219;-64
2023/04/27 17:28:33;;;;;;;10.55;7.10;;;;;;;10.14;51.63;96610.63;10434466;28;20254;-63
2023/04/27 17:33:34;;;;;;;12.45;7.00;;;;;;;9.88;53.46;96626.34;10436218;28;20212;-63
2023/04/27 17:38:34;;;;;;;11.88;7.35;;;;;;;9.66;53.53;96627.66;10434246;28;20208;-62
2023/04/27 17:43:36;;;;;;;22.52;11.10;;;;;;;9.33;54.42;96635.28;10435586;28;20219;-62
2023/04/27 17:48:36;;;;;;;15.33;10.90;;;;;;;8.96;55.78;96659.72;10430769;28;20305;-63
2023/04/27 17:53:37;;;;;;;15.47;9.27;;;;;;;8.64;57.60;96693.19;10435476;28;20790;-63
2023/04/27 17:58:37;;;;;;;20.97;8.57;;;;;;;8.25;59.62;96719.41;10432538;28;20260;-63
2023/04/27 18:03:38;;;;;;;18.40;9.60;;;;;;;7.56;61.31;96733.50;10435601;28;20219;-63
2023/04/27 18:08:38;;;;;;;14.67;9.87;;;;;;;6.81;64.78;96778.19;10422186;28;20224;-62
2023/04/27 18:13:38;;;;;;;12.67;8.90;;;;;;;6.55;66.64;96786.41;10415219;28;20235;-62
2023/04/27 18:18:39;;;;;;;20.87;9.87;;;;;;;5.98;68.99;96796.34;10413914;28;20228;-62
2023/04/27 18:23:40;;;;;;;14.97;11.13;;;;;;;5.90;69.91;96788.34;10415073;28;20243;-63
2023/04/27 18:28:40;;;;;;;15.27;10.07;;;;;;;5.30;72.42;96793.16;10415303;28;20247;-62
2023/04/27 18:33:42;;;;;;;26.13;15.83;;;;;;;4.66;75.23;96806.78;10415071;28;20247;-62
2023/04/27 18:38:42;;;;;;;16.63;8.93;;;;;;;4.80;76.11;96807.34;10415200;28;20201;-62
2023/04/27 18:43:43;;;;;;;13.30;9.30;;;;;;;4.35;77.85;96802.13;10414532;28;20232;-63
2023/04/27 18:48:43;;;;;;;21.63;13.27;;;;;;;4.14;79.67;96814.94;10414650;28;20258;-63
2023/04/27 18:53:44;;;;;;;14.10;8.40;;;;;;;4.11;82.20;96825.53;10414037;28;20323;-64
2023/04/27 18:58:45;;;;;;;16.50;7.77;;;;;;;3.98;84.09;96833.41;10414253;28;20191;-63
2023/04/27 19:03:45;;;;;;;12.47;8.10;;;;;;;3.88;86.23;96832.41;10414092;28;20726;-63
2023/04/27 19:08:45;;;;;;;11.93;8.17;;;;;;;3.80;87.48;96832.97;10413169;28;20216;-63
2023/04/27 19:13:46;;;;;;;10.47;7.53;;;;;;;3.67;89.05;96838.19;10413713;28;20259;-63
2023/04/27 19:18:46;;;;;;;14.83;8.87;;;;;;;3.32;90.29;96841.56;10412957;28;20180;-61
2023/04/27 19:23:46;;;;;;;14.53;8.43;;;;;;;3.19;91.89;96844.16;10413239;28;20629;-62
2023/04/27 19:28:47;;;;;;;14.27;8.37;;;;;;;3.08;93.97;96859.63;10413018;28;20671;-61
2023/04/27 19:33:47;;;;;;;16.30;8.67;;;;;;;2.88;96.08;96855.81;10412819;28;20643;-61
2023/04/27 19:38:47;;;;;;;15.70;8.63;;;;;;;2.82;97.35;96854.47;10412711;28;20673;-62
2023/04/27 19:43:48;;;;;;;12.07;7.90;;;;;;;2.92;96.88;96859.00;10412521;28;20266;-62
2023/04/27 19:48:48;;;;;;;16.13;8.63;;;;;;;2.79;96.84;96846.09;10412186;28;20290;-61
2023/04/27 19:53:49;;;;;;;13.83;7.37;;;;;;;2.68;98.25;96845.06;10411743;28;20242;-62
2023/04/27 19:58:49;;;;;;;11.90;8.50;;;;;;;2.58;99.37;96848.38;10411998;28;20223;-62
2023/04/27 20:03:52;;;;;;;22.77;9.33;;;;;;;2.40;100.00;96840.09;10411535;28;20209;-62
2023/04/27 20:08:52;;;;;;;15.17;7.67;;;;;;;2.43;100.00;96835.53;10411625;28;20223;-60
2023/04/27 20:13:52;;;;;;;17.93;9.67;;;;;;;2.26;100.00;96838.44;10410566;28;20219;-62
2023/04/27 20:18:54;;;;;;;11.00;7.13;;;;;;;2.35;100.00;96829.25;10428894;28;20187;-62
2023/04/27 20:23:54;;;;;;;13.57;8.40;;;;;;;2.35;100.00;96835.22;10429495;28;20250;-62
2023/04/27 20:28:55;;;;;;;12.93;6.90;;;;;;;2.27;100.00;96829.75;10419505;28;20648;-62
2023/04/27 20:33:55;;;;;;;14.93;9.20;;;;;;;2.11;100.00;96830.78;10410961;28;20234;-62
2023/04/27 20:38:56;;;;;;;14.77;8.33;;;;;;;2.13;100.00;96822.91;10410282;28;20181;-63
2023/04/27 20:43:57;;;;;;;11.57;8.33;;;;;;;2.12;100.00;96823.84;10410676;28;20216;-60
2023/04/27 20:48:57;;;;;;;11.77;7.80;;;;;;;2.06;100.00;96822.47;10410107;28;20233;-62
2023/04/27 20:53:58;;;;;;;12.23;8.17;;;;;;;1.96;100.00;96824.00;10409634;28;20270;-61
2023/04/27 20:58:58;;;;;;;19.40;10.10;;;;;;;1.94;100.00;96812.94;10410445;28;20192;-62
2023/04/27 21:03:59;;;;;;;14.63;8.43;;;;;;;1.82;100.00;96821.50;10409848;28;20639;-61
2023/04/27 21:08:59;;;;;;;15.60;8.50;;;;;;;1.78;100.00;96818.28;10410076;28;20777;-63
2023/04/27 21:14:00;;;;;;;15.37;8.70;;;;;;;1.71;100.00;96814.44;10409815;28;20213;-61
2023/04/27 21:19:00;;;;;;;13.03;8.47;;;;;;;1.69;100.00;96805.97;10410112;28;20275;-63
2023/04/27 21:24:03;;;;;;;12.83;9.20;;;;;;;1.56;100.00;96803.34;10409636;28;20270;-62
2023/04/27 21:29:04;;;;;;;16.90;9.50;;;;;;;1.43;100.00;96803.31;10409720;28;20255;-63
2023/04/27 21:34:04;;;;;;;19.10;9.37;;;;;;;1.31;100.00;96797.16;10409680;28;20216;-62
2023/04/27 21:39:05;;;;;;;12.70;8.23;;;;;;;1.23;100.00;96799.41;10412041;28;20196;-63
2023/04/27 21:44:05;;;;;;;12.90;6.70;;;;;;;1.22;100.00;96782.25;10417090;28;20219;-63
2023/04/27 21:49:06;;;;;;;13.97;9.00;;;;;;;1.22;100.00;96784.84;10416622;28;20234;-61
2023/04/27 21:54:06;;;;;;;14.00;9.37;;;;;;;1.19;100.00;96785.03;10416537;28;20262;-59
2023/04/27 21:59:07;;;;;;;18.67;8.90;;;;;;;1.12;100.00;96797.50;10416483;28;20250;-60
2023/04/27 22:04:08;;;;;;;14.67;8.37;;;;;;;1.09;100.00;96779.63;10416039;28;20603;-61
2023/04/27 22:09:08;;;;;;;13.50;8.40;;;;;;;0.96;100.00;96781.31;10416436;28;20223;-61
2023/04/27 22:14:09;;;;;;;17.87;10.10;;;;;;;0.87;100.00;96782.69;10415902;28;20208;-61
2023/04/27 22:19:11;;;;;;;12.67;8.07;;;;;;;0.87;100.00;96780.13;10416074;28;20225;-62
2023/04/27 22:24:11;;;;;;;15.33;8.30;;;;;;;0.80;100.00;96779.69;10415527;28;20242;-60
2023/04/27 22:29:12;;;;;;;15.37;9.50;;;;;;;0.69;100.00;96785.50;10415355;28;20228;-61
2023/04/27 22:34:12;;;;;;;11.43;8.93;;;;;;;0.64;100.00;96782.34;10415354;28;20216;-62
2023/04/27 22:39:13;;;;;;;14.53;9.13;;;;;;;0.63;100.00;96787.59;10414923;28;20540;-59
2023/04/27 22:44:13;;;;;;;16.40;9.73;;;;;;;0.59;100.00;96786.97;10414917;28;20215;-60
2023/04/27 22:49:14;;;;;;;14.13;9.07;;;;;;;0.56;100.00;96786.34;10413968;28;20216;-61
2023/04/27 22:54:14;;;;;;;13.40;8.80;;;;;;;0.49;100.00;96785.84;10409740;23;20671;-64
2023/04/27 22:59:15;;;;;;;16.67;9.73;;;;;;;0.37;100.00;96786.59;10372149;28;20183;-65
2023/04/27 23:04:15;;;;;;;11.43;7.90;;;;;;;0.37;100.00;96784.88;10373114;28;20216;-63
2023/04/27 23:09:15;;;;;;;11.93;8.77;;;;;;;0.28;100.00;96785.41;10372958;28;20228;-65
2023/04/27 23:14:19;;;;;;;13.77;9.43;;;;;;;0.30;100.00;96770.69;10372985;28;20613;-63